MMAA/ACA METAR and TAF weather

Enter ICAO airport designator
Station Type Date Time Source
MMAA METAR 2019/10/15 08:47 UTC NOAA

MMAA 150847Z 12005KT 6SM TS BKN015CB BKN090 OVC300 28/24 A2982 RMK SLP100 57007 908 8/963 HZY TSB47 LTGIC


Station Type Date Time Source
MMAA Decoded METAR 2019/10/15 08:47 UTC NOAA

Acapulco / G. Alvarez, Mexico (MMAA) 16-46N 099-45W
Oct 15, 2019 - 04:47 AM EDT / 2019.10.15 0847 UTC
Wind: from the ESE (120 degrees) at 6 MPH (5 KT):0
Visibility: 6 mile(s):0
Sky conditions: overcast
Weather: thunder; Cumulonimbus clouds, lightning observed
Temperature: 82 F (28 C)
Dew Point: 75 F (24 C)
Relative Humidity: 78%
Pressure (altimeter): 29.82 in. Hg (1009 hPa)
Pressure tendency: 0.02 inches (0.7 hPa) lower than three hours ago
ob: MMAA 150847Z 12005KT 6SM TS BKN015CB BKN090 OVC300 28/24 A2982 RMK SLP100 57007 908 8/963 HZY TSB47 LTGIC
cycle: 9

Station Type Date Time Source
MMAA TAF 2019/10/15 06:12 UTC NOAA

TAF TAF MMAA 150411Z 1506/1612 28008KT 6SM HZ SCT015 BKN300 TX31/1519Z TN26/1512Z
FM151800 25010KT P6SM SCT020 BKN250
BECMG 1605/1607 28006KT

Example: see airport list